createdAt,value
2023-10-06T00:23:03.219Z,6.15
2023-10-06T05:00:54.773Z,11.70
2023-10-06T05:22:16.169Z,12.75
2023-10-06T05:24:42.940Z,13.30
2023-10-06T05:27:11.003Z,12.57
2023-10-06T05:29:37.716Z,14.43
2023-10-06T05:32:05.102Z,14.32
2023-10-06T05:34:32.644Z,13.65
2023-10-06T05:37:01.224Z,13.63
2023-10-06T06:20:04.654Z,14.35
2023-10-06T06:22:41.240Z,14.50
2023-10-06T06:25:10.536Z,15.18
2023-10-06T06:27:37.782Z,15.23
2023-10-06T06:30:04.979Z,14.48
2023-10-06T06:32:31.784Z,16.40
2023-10-06T06:34:58.539Z,15.32
2023-10-06T06:37:25.382Z,13.63
2023-10-06T06:39:52.043Z,13.88
2023-10-06T06:42:20.185Z,16.23
2023-10-06T06:44:49.376Z,14.27
2023-10-06T06:47:19.881Z,13.15
2023-10-06T06:49:49.783Z,12.07
2023-10-06T06:52:16.764Z,13.55
2023-10-06T06:54:48.408Z,13.80
2023-10-06T07:03:13.929Z,12.73
2023-10-06T07:05:41.248Z,12.73
2023-10-06T07:08:08.658Z,13.02
2023-10-06T07:10:40.326Z,13.23
2023-10-06T07:13:08.386Z,13.23
2023-10-06T07:15:35.334Z,13.43
2023-10-06T07:18:02.492Z,12.75
2023-10-06T07:20:31.213Z,12.15
2023-10-06T07:23:01.779Z,12.38
2023-10-06T07:25:30.149Z,12.80
2023-10-06T07:27:59.156Z,11.52
2023-10-06T07:30:28.501Z,12.55
2023-10-06T07:32:56.144Z,13.10
2023-10-06T07:35:32.683Z,15.07
2023-10-06T07:37:59.833Z,12.60
2023-10-06T07:40:29.022Z,12.25
2023-10-06T07:42:56.755Z,13.00
2023-10-06T07:45:25.395Z,12.40
2023-10-06T07:47:52.777Z,13.38
2023-10-06T07:50:19.850Z,12.43
2023-10-06T07:52:48.305Z,12.95
2023-10-06T07:55:17.019Z,12.80
2023-10-06T07:57:49.650Z,12.80
2023-10-06T08:00:40.315Z,12.48
2023-10-06T08:03:08.927Z,12.23
2023-10-06T08:05:37.682Z,12.40
2023-10-06T08:08:06.014Z,13.00
2023-10-06T08:10:34.049Z,11.82
2023-10-06T08:13:03.975Z,11.80
2023-10-06T08:15:34.381Z,11.88
2023-10-06T08:18:01.740Z,12.13
2023-10-06T08:20:29.341Z,11.57
2023-10-06T08:22:58.551Z,11.55
2023-10-06T08:25:26.718Z,11.90
2023-10-06T08:27:54.472Z,12.13
2023-10-06T08:30:21.656Z,12.02
2023-10-06T08:32:55.991Z,11.75
2023-10-06T08:38:00.247Z,11.80
2023-10-06T08:40:28.222Z,12.18
2023-10-06T08:43:12.375Z,11.68
2023-10-06T08:45:43.988Z,12.15
2023-10-06T08:48:13.295Z,11.98
2023-10-06T08:50:42.982Z,12.15
2023-10-06T08:53:15.321Z,11.07
2023-10-06T08:55:45.564Z,11.07
2023-10-06T08:58:16.090Z,10.85
2023-10-06T09:00:45.996Z,12.40
2023-10-06T09:03:16.154Z,11.40
2023-10-06T09:05:43.576Z,11.07
2023-10-06T09:08:11.573Z,11.10
2023-10-06T09:10:43.081Z,10.88
2023-10-06T09:13:18.582Z,13.77
2023-10-06T09:16:04.154Z,9.93
2023-10-06T09:18:35.844Z,14.40
2023-10-06T09:21:22.114Z,9.82
2023-10-06T09:23:50.888Z,8.70
2023-10-06T09:35:28.363Z,7.40
2023-10-06T09:38:11.206Z,8.02
2023-10-06T09:40:48.115Z,8.85
2023-10-06T09:43:22.523Z,7.88
2023-10-06T09:45:53.230Z,10.45
2023-10-06T09:48:26.028Z,11.93
2023-10-06T09:50:55.696Z,8.75
2023-10-06T09:53:23.182Z,8.90
2023-10-06T09:55:51.185Z,7.75
2023-10-06T09:58:20.118Z,6.53
2023-10-06T10:00:48.946Z,6.63
2023-10-06T10:03:17.707Z,6.20
2023-10-06T10:05:47.831Z,6.97
2023-10-06T10:08:15.712Z,6.68
2023-10-06T10:10:46.211Z,6.32
2023-10-06T10:13:25.789Z,6.75
2023-10-06T10:16:10.363Z,6.18
2023-10-06T10:18:39.907Z,6.72
2023-10-06T10:21:13.059Z,6.15
2023-10-06T10:23:41.402Z,5.90
2023-10-06T10:26:38.768Z,5.68
2023-10-06T10:29:25.965Z,5.70
2023-10-06T10:32:01.333Z,5.90
2023-10-06T10:34:39.694Z,5.93
2023-10-06T10:37:09.312Z,5.72
2023-10-06T10:39:50.114Z,5.80
2023-10-06T10:44:50.807Z,5.40
2023-10-06T10:47:25.737Z,5.53
2023-10-06T10:49:53.472Z,4.75
2023-10-06T10:52:25.105Z,6.43
2023-10-06T10:54:55.865Z,5.80
2023-10-06T10:57:23.326Z,5.20
2023-10-06T11:00:13.697Z,4.18
2023-10-06T11:02:51.087Z,4.85
2023-10-06T11:05:23.138Z,5.68
2023-10-06T11:08:05.261Z,6.38
2023-10-06T11:10:34.072Z,4.57
2023-10-06T11:13:22.496Z,4.85
2023-10-06T11:15:50.484Z,4.47
2023-10-06T11:18:20.531Z,4.70
2023-10-06T11:20:49.356Z,4.68
2023-10-06T11:23:16.586Z,4.45
2023-10-06T11:25:51.145Z,4.75
2023-10-06T11:28:19.978Z,4.47
2023-10-06T11:30:46.962Z,4.57
2023-10-06T11:33:15.381Z,4.85
2023-10-06T11:35:42.564Z,4.93
2023-10-06T11:38:13.150Z,4.88
2023-10-06T11:40:42.271Z,4.65
2023-10-06T11:43:27.940Z,4.72
2023-10-06T11:46:05.989Z,4.95
2023-10-06T11:48:37.127Z,4.78
2023-10-06T11:51:14.003Z,5.72
2023-10-06T11:53:41.682Z,5.05
2023-10-06T11:56:14.851Z,5.75
2023-10-06T11:58:43.496Z,5.50
2023-10-06T12:01:47.011Z,6.15
2023-10-06T12:04:32.548Z,5.72
2023-10-06T12:07:02.431Z,5.93
2023-10-06T12:09:35.488Z,7.45
2023-10-06T12:12:02.879Z,6.45
2023-10-06T12:14:31.361Z,7.13
2023-10-06T12:16:58.388Z,7.35
2023-10-06T12:19:25.608Z,8.90
2023-10-06T12:21:52.516Z,7.15
2023-10-06T12:24:19.644Z,8.57
2023-10-06T12:26:47.968Z,10.73
2023-10-06T12:29:18.215Z,9.93
2023-10-06T12:31:47.779Z,9.85
2023-10-06T12:34:17.011Z,8.73
2023-10-06T12:36:48.476Z,8.05
2023-10-06T12:39:18.096Z,9.55
2023-10-06T12:41:48.129Z,8.50
2023-10-06T12:44:15.394Z,8.65
2023-10-06T12:46:44.229Z,8.13
2023-10-06T12:49:11.143Z,8.73
2023-10-06T12:51:37.833Z,9.05
2023-10-06T12:54:05.221Z,9.32
2023-10-06T12:56:32.627Z,7.80
2023-10-06T12:58:59.525Z,8.93
2023-10-06T13:01:27.166Z,7.95
2023-10-06T13:33:08.080Z,9.75
2023-10-06T14:00:48.819Z,9.43
2023-10-06T14:03:49.432Z,9.30
2023-10-06T15:33:22.728Z,6.10
2023-10-06T15:45:15.000Z,6.40
2023-10-06T17:06:46.925Z,5.47
2023-10-06T17:24:58.052Z,5.40
2023-10-06T17:27:24.957Z,6.18
2023-10-06T17:39:04.625Z,6.38
2023-10-06T18:32:29.657Z,6.18
2023-10-06T18:34:56.567Z,6.35
2023-10-06T18:37:23.378Z,6.22
2023-10-06T18:39:50.940Z,5.68
2023-10-06T18:42:17.731Z,6.22
2023-10-06T18:44:44.482Z,6.13
2023-10-06T18:47:11.609Z,6.30
2023-10-06T18:49:38.483Z,6.40
2023-10-06T18:52:05.240Z,6.30
2023-10-06T18:54:50.694Z,6.35
2023-10-06T19:34:56.112Z,6.18
2023-10-06T19:37:23.136Z,6.72
2023-10-06T19:39:49.784Z,5.72
2023-10-06T19:42:16.524Z,5.47
2023-10-06T19:44:44.490Z,5.53
2023-10-06T19:47:30.509Z,5.63
2023-10-06T19:49:57.538Z,5.45
2023-10-06T19:52:25.046Z,5.07
2023-10-06T19:54:52.057Z,5.75
2023-10-06T19:57:21.769Z,5.05
2023-10-06T19:59:48.506Z,4.60
2023-10-06T20:02:15.498Z,5.00
2023-10-06T20:04:43.666Z,5.22
2023-10-06T20:07:10.547Z,4.82
2023-10-06T20:09:37.459Z,5.65
2023-10-06T20:12:04.515Z,5.22
2023-10-06T20:14:31.435Z,4.68
2023-10-06T20:17:01.680Z,4.80
2023-10-06T20:19:28.579Z,4.72
2023-10-06T20:21:55.688Z,5.10
2023-10-06T20:24:22.493Z,5.10
2023-10-06T20:26:49.210Z,4.72
2023-10-06T20:29:19.521Z,4.80
2023-10-06T20:31:46.389Z,4.50
2023-10-06T20:34:13.149Z,5.60
2023-10-06T20:36:40.987Z,4.75
2023-10-06T20:39:10.919Z,4.80
2023-10-06T20:41:39.632Z,4.97
2023-10-06T20:44:11.974Z,4.72
2023-10-06T20:46:58.032Z,4.90
2023-10-06T20:49:26.053Z,4.60
2023-10-06T20:51:52.808Z,4.80
2023-10-06T20:54:19.654Z,5.15
2023-10-06T20:56:46.514Z,5.18
2023-10-06T20:59:14.601Z,4.70
2023-10-06T21:01:43.185Z,5.55
2023-10-06T21:04:10.365Z,4.70
2023-10-06T21:06:37.827Z,4.72
2023-10-06T21:09:07.690Z,4.97
2023-10-06T21:11:35.636Z,5.20
2023-10-06T21:14:02.368Z,4.90
2023-10-06T21:16:29.603Z,5.07
2023-10-06T22:47:15.315Z,12.73
2023-10-06T22:49:42.175Z,12.55
2023-10-06T22:52:08.881Z,13.20
2023-10-06T22:54:35.646Z,13.98
2023-10-06T22:57:02.646Z,13.00
2023-10-06T22:59:29.612Z,13.32
2023-10-06T23:01:56.393Z,14.25
2023-10-06T23:04:23.878Z,14.80
2023-10-06T23:06:50.727Z,14.68
2023-10-06T23:09:18.534Z,14.13
2023-10-06T23:11:45.765Z,14.48
2023-10-06T23:14:12.686Z,15.00
2023-10-06T23:16:40.958Z,13.98
2023-10-06T23:19:13.955Z,14.80
2023-10-06T23:21:44.308Z,12.93
2023-10-06T23:24:16.026Z,13.55
2023-10-06T23:26:43.865Z,13.43
2023-10-06T23:29:10.832Z,14.80
2023-10-06T23:31:41.297Z,14.77
2023-10-06T23:34:08.586Z,15.35
2023-10-06T23:36:35.555Z,14.52
2023-10-06T23:39:02.352Z,16.35
2023-10-06T23:41:30.661Z,14.23
2023-10-06T23:43:57.894Z,15.52
2023-10-06T23:46:26.605Z,15.38
2023-10-06T23:48:54.324Z,15.85
2023-10-06T23:51:22.144Z,15.57
2023-10-06T23:53:52.780Z,16.00
2023-10-06T23:56:26.561Z,15.85
2023-10-06T23:58:56.672Z,16.30
